sensor_id;sensor_type;location;lat;lon;timestamp;P1;durP1;ratioP1;P2;durP2;ratioP2
82030;SDS011;71592;52.178;4.512;2023-11-21T00:02:10;7.53;;;5.17;;
82030;SDS011;71592;52.178;4.512;2023-11-21T00:04:35;7.87;;;4.20;;
82030;SDS011;71592;52.178;4.512;2023-11-21T00:07:01;9.03;;;4.40;;
82030;SDS011;71592;52.178;4.512;2023-11-21T00:09:26;10.88;;;4.93;;
82030;SDS011;71592;52.178;4.512;2023-11-21T00:11:51;9.63;;;4.18;;
82030;SDS011;71592;52.178;4.512;2023-11-21T00:14:16;7.93;;;4.17;;
82030;SDS011;71592;52.178;4.512;2023-11-21T00:16:42;7.80;;;4.45;;
82030;SDS011;71592;52.178;4.512;2023-11-21T00:19:08;10.20;;;4.63;;
82030;SDS011;71592;52.178;4.512;2023-11-21T00:21:33;7.77;;;4.60;;
82030;SDS011;71592;52.178;4.512;2023-11-21T00:23:58;12.87;;;5.80;;
82030;SDS011;71592;52.178;4.512;2023-11-21T00:26:23;9.77;;;4.63;;
82030;SDS011;71592;52.178;4.512;2023-11-21T00:28:49;11.85;;;5.03;;
82030;SDS011;71592;52.178;4.512;2023-11-21T00:31:15;8.57;;;4.80;;
82030;SDS011;71592;52.178;4.512;2023-11-21T00:33:43;9.07;;;4.80;;
82030;SDS011;71592;52.178;4.512;2023-11-21T00:36:08;9.15;;;5.07;;
82030;SDS011;71592;52.178;4.512;2023-11-21T00:38:35;7.72;;;4.38;;
82030;SDS011;71592;52.178;4.512;2023-11-21T00:41:00;8.40;;;4.60;;
82030;SDS011;71592;52.178;4.512;2023-11-21T00:43:25;8.50;;;5.23;;
82030;SDS011;71592;52.178;4.512;2023-11-21T00:45:50;7.40;;;3.92;;
82030;SDS011;71592;52.178;4.512;2023-11-21T00:48:16;8.32;;;4.63;;
82030;SDS011;71592;52.178;4.512;2023-11-21T00:50:41;8.50;;;4.55;;
82030;SDS011;71592;52.178;4.512;2023-11-21T00:53:07;9.30;;;4.78;;
82030;SDS011;71592;52.178;4.512;2023-11-21T00:55:32;9.87;;;4.47;;
82030;SDS011;71592;52.178;4.512;2023-11-21T00:57:58;8.80;;;3.88;;
82030;SDS011;71592;52.178;4.512;2023-11-21T01:00:23;8.90;;;4.30;;
82030;SDS011;71592;52.178;4.512;2023-11-21T01:02:48;7.93;;;4.00;;
82030;SDS011;71592;52.178;4.512;2023-11-21T01:05:14;6.93;;;4.43;;
82030;SDS011;71592;52.178;4.512;2023-11-21T01:07:39;7.38;;;4.35;;
82030;SDS011;71592;52.178;4.512;2023-11-21T01:10:04;10.10;;;4.10;;
82030;SDS011;71592;52.178;4.512;2023-11-21T01:12:33;8.85;;;4.72;;
82030;SDS011;71592;52.178;4.512;2023-11-21T01:14:59;10.10;;;4.80;;
82030;SDS011;71592;52.178;4.512;2023-11-21T01:17:25;8.73;;;4.30;;
82030;SDS011;71592;52.178;4.512;2023-11-21T01:19:51;8.00;;;4.50;;
82030;SDS011;71592;52.178;4.512;2023-11-21T01:22:16;16.42;;;4.47;;
82030;SDS011;71592;52.178;4.512;2023-11-21T01:24:42;6.70;;;4.40;;
82030;SDS011;71592;52.178;4.512;2023-11-21T01:27:08;7.53;;;4.38;;
82030;SDS011;71592;52.178;4.512;2023-11-21T01:29:33;9.70;;;4.22;;
82030;SDS011;71592;52.178;4.512;2023-11-21T01:32:00;7.63;;;3.65;;
82030;SDS011;71592;52.178;4.512;2023-11-21T01:34:26;7.72;;;4.07;;
82030;SDS011;71592;52.178;4.512;2023-11-21T01:36:52;8.45;;;4.15;;
82030;SDS011;71592;52.178;4.512;2023-11-21T01:39:17;8.07;;;4.30;;
82030;SDS011;71592;52.178;4.512;2023-11-21T01:41:48;9.00;;;4.07;;
82030;SDS011;71592;52.178;4.512;2023-11-21T01:44:13;6.13;;;3.37;;
82030;SDS011;71592;52.178;4.512;2023-11-21T01:46:38;7.50;;;3.83;;
82030;SDS011;71592;52.178;4.512;2023-11-21T01:49:04;6.68;;;4.07;;
82030;SDS011;71592;52.178;4.512;2023-11-21T01:51:30;6.00;;;3.78;;
82030;SDS011;71592;52.178;4.512;2023-11-21T01:53:56;8.32;;;4.05;;
82030;SDS011;71592;52.178;4.512;2023-11-21T01:56:21;10.67;;;4.20;;
82030;SDS011;71592;52.178;4.512;2023-11-21T01:58:47;8.33;;;3.60;;
82030;SDS011;71592;52.178;4.512;2023-11-21T02:01:12;6.67;;;4.07;;
82030;SDS011;71592;52.178;4.512;2023-11-21T02:03:37;7.63;;;3.40;;
82030;SDS011;71592;52.178;4.512;2023-11-21T02:06:03;6.40;;;3.67;;
82030;SDS011;71592;52.178;4.512;2023-11-21T02:08:28;6.80;;;3.83;;
82030;SDS011;71592;52.178;4.512;2023-11-21T02:10:53;7.67;;;3.97;;
82030;SDS011;71592;52.178;4.512;2023-11-21T02:13:18;7.83;;;3.50;;
82030;SDS011;71592;52.178;4.512;2023-11-21T02:15:44;5.40;;;3.43;;
82030;SDS011;71592;52.178;4.512;2023-11-21T02:18:09;6.43;;;3.50;;
82030;SDS011;71592;52.178;4.512;2023-11-21T02:20:36;6.10;;;3.28;;
82030;SDS011;71592;52.178;4.512;2023-11-21T02:23:03;8.95;;;3.58;;
82030;SDS011;71592;52.178;4.512;2023-11-21T02:25:30;8.05;;;3.70;;
82030;SDS011;71592;52.178;4.512;2023-11-21T02:27:57;5.75;;;2.78;;
82030;SDS011;71592;52.178;4.512;2023-11-21T02:30:22;4.68;;;2.45;;
82030;SDS011;71592;52.178;4.512;2023-11-21T02:32:50;5.20;;;2.33;;
82030;SDS011;71592;52.178;4.512;2023-11-21T02:35:18;5.90;;;2.33;;
82030;SDS011;71592;52.178;4.512;2023-11-21T02:37:43;4.60;;;2.15;;
82030;SDS011;71592;52.178;4.512;2023-11-21T02:40:09;4.37;;;2.07;;
82030;SDS011;71592;52.178;4.512;2023-11-21T02:42:34;3.83;;;2.20;;
82030;SDS011;71592;52.178;4.512;2023-11-21T02:45:00;4.93;;;2.30;;
82030;SDS011;71592;52.178;4.512;2023-11-21T02:47:25;3.63;;;2.00;;
82030;SDS011;71592;52.178;4.512;2023-11-21T02:49:50;4.03;;;2.00;;
82030;SDS011;71592;52.178;4.512;2023-11-21T02:52:17;4.70;;;2.15;;
82030;SDS011;71592;52.178;4.512;2023-11-21T02:54:42;3.33;;;1.77;;
82030;SDS011;71592;52.178;4.512;2023-11-21T02:57:07;3.92;;;1.55;;
82030;SDS011;71592;52.178;4.512;2023-11-21T02:59:33;3.22;;;1.67;;
82030;SDS011;71592;52.178;4.512;2023-11-21T03:01:58;3.37;;;1.80;;
82030;SDS011;71592;52.178;4.512;2023-11-21T03:04:24;3.73;;;1.93;;
82030;SDS011;71592;52.178;4.512;2023-11-21T03:06:49;3.20;;;1.75;;
82030;SDS011;71592;52.178;4.512;2023-11-21T03:09:15;3.47;;;1.93;;
82030;SDS011;71592;52.178;4.512;2023-11-21T03:11:41;4.05;;;2.00;;
82030;SDS011;71592;52.178;4.512;2023-11-21T03:14:07;3.05;;;1.70;;
82030;SDS011;71592;52.178;4.512;2023-11-21T03:16:32;3.33;;;1.77;;
82030;SDS011;71592;52.178;4.512;2023-11-21T03:18:57;3.85;;;2.03;;
82030;SDS011;71592;52.178;4.512;2023-11-21T03:21:23;3.35;;;1.80;;
82030;SDS011;71592;52.178;4.512;2023-11-21T03:23:49;3.75;;;2.00;;
82030;SDS011;71592;52.178;4.512;2023-11-21T03:45:40;5.72;;;2.00;;
82030;SDS011;71592;52.178;4.512;2023-11-21T03:48:06;3.25;;;1.83;;
82030;SDS011;71592;52.178;4.512;2023-11-21T03:50:31;3.00;;;1.90;;
82030;SDS011;71592;52.178;4.512;2023-11-21T03:52:56;3.03;;;1.90;;
82030;SDS011;71592;52.178;4.512;2023-11-21T03:55:21;3.20;;;2.00;;
82030;SDS011;71592;52.178;4.512;2023-11-21T03:57:49;3.17;;;1.60;;
82030;SDS011;71592;52.178;4.512;2023-11-21T04:00:14;4.37;;;2.10;;
82030;SDS011;71592;52.178;4.512;2023-11-21T04:02:39;3.13;;;1.73;;
82030;SDS011;71592;52.178;4.512;2023-11-21T04:05:05;3.45;;;1.80;;
82030;SDS011;71592;52.178;4.512;2023-11-21T04:07:32;4.85;;;1.95;;
82030;SDS011;71592;52.178;4.512;2023-11-21T04:09:57;3.20;;;1.73;;
82030;SDS011;71592;52.178;4.512;2023-11-21T04:12:22;3.57;;;1.60;;
82030;SDS011;71592;52.178;4.512;2023-11-21T04:14:48;3.60;;;1.60;;
82030;SDS011;71592;52.178;4.512;2023-11-21T04:17:13;4.37;;;1.90;;
82030;SDS011;71592;52.178;4.512;2023-11-21T04:19:38;3.93;;;1.70;;
82030;SDS011;71592;52.178;4.512;2023-11-21T04:22:03;4.83;;;2.20;;
82030;SDS011;71592;52.178;4.512;2023-11-21T04:24:29;4.00;;;1.80;;
82030;SDS011;71592;52.178;4.512;2023-11-21T04:26:54;3.57;;;1.70;;
82030;SDS011;71592;52.178;4.512;2023-11-21T04:29:19;3.47;;;2.00;;
82030;SDS011;71592;52.178;4.512;2023-11-21T04:31:44;2.87;;;1.73;;
82030;SDS011;71592;52.178;4.512;2023-11-21T04:34:10;3.80;;;1.97;;
82030;SDS011;71592;52.178;4.512;2023-11-21T04:36:35;3.80;;;1.80;;
82030;SDS011;71592;52.178;4.512;2023-11-21T04:39:00;3.07;;;1.70;;
82030;SDS011;71592;52.178;4.512;2023-11-21T04:41:26;5.10;;;1.92;;
82030;SDS011;71592;52.178;4.512;2023-11-21T04:43:51;3.10;;;2.08;;
82030;SDS011;71592;52.178;4.512;2023-11-21T04:46:16;4.72;;;2.20;;
82030;SDS011;71592;52.178;4.512;2023-11-21T04:48:42;3.15;;;1.92;;
82030;SDS011;71592;52.178;4.512;2023-11-21T04:51:07;5.40;;;2.22;;
82030;SDS011;71592;52.178;4.512;2023-11-21T04:53:33;3.67;;;1.93;;
82030;SDS011;71592;52.178;4.512;2023-11-21T04:55:58;4.07;;;2.03;;
82030;SDS011;71592;52.178;4.512;2023-11-21T04:58:24;4.60;;;1.87;;
82030;SDS011;71592;52.178;4.512;2023-11-21T05:00:49;3.90;;;2.10;;
82030;SDS011;71592;52.178;4.512;2023-11-21T05:03:14;2.57;;;1.53;;
82030;SDS011;71592;52.178;4.512;2023-11-21T05:05:40;3.50;;;1.77;;
82030;SDS011;71592;52.178;4.512;2023-11-21T05:08:05;4.40;;;1.90;;
82030;SDS011;71592;52.178;4.512;2023-11-21T05:10:30;5.85;;;2.45;;
82030;SDS011;71592;52.178;4.512;2023-11-21T05:12:56;4.27;;;2.03;;
82030;SDS011;71592;52.178;4.512;2023-11-21T05:15:21;5.22;;;2.35;;
82030;SDS011;71592;52.178;4.512;2023-11-21T05:17:47;5.10;;;1.98;;
82030;SDS011;71592;52.178;4.512;2023-11-21T05:20:15;3.22;;;1.80;;
82030;SDS011;71592;52.178;4.512;2023-11-21T05:22:45;3.17;;;2.00;;
82030;SDS011;71592;52.178;4.512;2023-11-21T05:25:10;3.17;;;1.85;;
82030;SDS011;71592;52.178;4.512;2023-11-21T05:27:36;3.63;;;1.88;;
82030;SDS011;71592;52.178;4.512;2023-11-21T05:30:02;4.32;;;2.20;;
82030;SDS011;71592;52.178;4.512;2023-11-21T05:32:30;4.45;;;2.13;;
82030;SDS011;71592;52.178;4.512;2023-11-21T05:34:55;3.88;;;2.17;;
82030;SDS011;71592;52.178;4.512;2023-11-21T05:37:20;3.83;;;2.03;;
82030;SDS011;71592;52.178;4.512;2023-11-21T05:39:45;5.60;;;2.27;;
82030;SDS011;71592;52.178;4.512;2023-11-21T05:42:11;4.78;;;1.88;;
82030;SDS011;71592;52.178;4.512;2023-11-21T05:44:37;3.47;;;2.10;;
82030;SDS011;71592;52.178;4.512;2023-11-21T05:47:02;3.58;;;2.00;;
82030;SDS011;71592;52.178;4.512;2023-11-21T05:49:28;4.15;;;2.03;;
82030;SDS011;71592;52.178;4.512;2023-11-21T05:51:56;4.70;;;2.45;;
82030;SDS011;71592;52.178;4.512;2023-11-21T05:54:21;4.15;;;1.90;;
82030;SDS011;71592;52.178;4.512;2023-11-21T05:56:47;4.65;;;1.67;;
82030;SDS011;71592;52.178;4.512;2023-11-21T05:59:12;3.87;;;1.73;;
82030;SDS011;71592;52.178;4.512;2023-11-21T06:01:37;3.63;;;1.70;;
82030;SDS011;71592;52.178;4.512;2023-11-21T06:04:04;4.38;;;1.80;;
82030;SDS011;71592;52.178;4.512;2023-11-21T06:06:29;2.67;;;1.92;;
82030;SDS011;71592;52.178;4.512;2023-11-21T06:08:54;4.03;;;1.60;;
82030;SDS011;71592;52.178;4.512;2023-11-21T06:11:20;3.05;;;1.65;;
82030;SDS011;71592;52.178;4.512;2023-11-21T06:13:45;3.43;;;1.60;;
82030;SDS011;71592;52.178;4.512;2023-11-21T06:16:11;4.67;;;1.70;;
82030;SDS011;71592;52.178;4.512;2023-11-21T06:18:38;2.88;;;1.60;;
82030;SDS011;71592;52.178;4.512;2023-11-21T06:21:03;4.07;;;1.67;;
82030;SDS011;71592;52.178;4.512;2023-11-21T06:23:28;5.07;;;1.90;;
82030;SDS011;71592;52.178;4.512;2023-11-21T06:25:54;4.20;;;1.77;;
82030;SDS011;71592;52.178;4.512;2023-11-21T06:28:19;5.50;;;2.35;;
82030;SDS011;71592;52.178;4.512;2023-11-21T06:30:45;3.30;;;1.60;;
82030;SDS011;71592;52.178;4.512;2023-11-21T06:33:10;4.10;;;1.67;;
82030;SDS011;71592;52.178;4.512;2023-11-21T06:35:36;6.03;;;1.90;;
82030;SDS011;71592;52.178;4.512;2023-11-21T06:38:01;7.78;;;2.13;;
82030;SDS011;71592;52.178;4.512;2023-11-21T06:40:27;4.30;;;2.08;;
82030;SDS011;71592;52.178;4.512;2023-11-21T06:42:53;6.07;;;2.15;;
82030;SDS011;71592;52.178;4.512;2023-11-21T06:45:18;5.47;;;2.40;;
82030;SDS011;71592;52.178;4.512;2023-11-21T06:47:45;4.97;;;2.10;;
82030;SDS011;71592;52.178;4.512;2023-11-21T06:50:10;6.87;;;2.40;;
82030;SDS011;71592;52.178;4.512;2023-11-21T06:52:35;5.68;;;2.58;;
82030;SDS011;71592;52.178;4.512;2023-11-21T06:55:00;9.23;;;2.73;;
82030;SDS011;71592;52.178;4.512;2023-11-21T06:57:26;6.35;;;2.70;;
82030;SDS011;71592;52.178;4.512;2023-11-21T06:59:51;6.60;;;2.37;;
82030;SDS011;71592;52.178;4.512;2023-11-21T07:02:16;7.13;;;2.55;;
82030;SDS011;71592;52.178;4.512;2023-11-21T07:04:43;5.47;;;2.17;;
82030;SDS011;71592;52.178;4.512;2023-11-21T07:07:09;4.43;;;2.17;;
82030;SDS011;71592;52.178;4.512;2023-11-21T07:09:34;7.60;;;1.90;;
82030;SDS011;71592;52.178;4.512;2023-11-21T07:12:00;4.45;;;1.98;;
82030;SDS011;71592;52.178;4.512;2023-11-21T07:14:25;4.23;;;1.80;;
82030;SDS011;71592;52.178;4.512;2023-11-21T07:16:50;5.43;;;3.13;;
82030;SDS011;71592;52.178;4.512;2023-11-21T07:19:17;5.55;;;2.05;;
82030;SDS011;71592;52.178;4.512;2023-11-21T07:21:42;4.33;;;1.90;;
82030;SDS011;71592;52.178;4.512;2023-11-21T07:24:08;4.75;;;2.30;;
82030;SDS011;71592;52.178;4.512;2023-11-21T07:26:34;5.03;;;2.03;;
82030;SDS011;71592;52.178;4.512;2023-11-21T07:28:59;4.80;;;2.13;;
82030;SDS011;71592;52.178;4.512;2023-11-21T07:31:25;4.97;;;2.03;;
82030;SDS011;71592;52.178;4.512;2023-11-21T07:33:50;3.75;;;1.90;;
82030;SDS011;71592;52.178;4.512;2023-11-21T07:36:16;5.93;;;2.47;;
82030;SDS011;71592;52.178;4.512;2023-11-21T07:38:43;4.95;;;2.30;;
82030;SDS011;71592;52.178;4.512;2023-11-21T07:41:08;5.20;;;2.50;;
82030;SDS011;71592;52.178;4.512;2023-11-21T07:43:34;4.70;;;2.25;;
82030;SDS011;71592;52.178;4.512;2023-11-21T07:46:03;4.97;;;2.42;;
82030;SDS011;71592;52.178;4.512;2023-11-21T07:48:29;7.05;;;2.65;;
82030;SDS011;71592;52.178;4.512;2023-11-21T07:50:55;3.15;;;2.13;;
82030;SDS011;71592;52.178;4.512;2023-11-21T07:53:20;6.80;;;2.60;;
82030;SDS011;71592;52.178;4.512;2023-11-21T07:55:47;8.02;;;2.47;;
82030;SDS011;71592;52.178;4.512;2023-11-21T07:58:12;6.60;;;2.50;;
82030;SDS011;71592;52.178;4.512;2023-11-21T08:00:38;7.57;;;3.42;;
82030;SDS011;71592;52.178;4.512;2023-11-21T08:03:04;6.68;;;2.92;;
82030;SDS011;71592;52.178;4.512;2023-11-21T08:05:29;6.28;;;2.72;;
82030;SDS011;71592;52.178;4.512;2023-11-21T08:07:55;4.45;;;2.70;;
82030;SDS011;71592;52.178;4.512;2023-11-21T08:10:21;6.53;;;3.63;;
82030;SDS011;71592;52.178;4.512;2023-11-21T08:12:46;7.50;;;3.28;;
82030;SDS011;71592;52.178;4.512;2023-11-21T08:15:13;5.57;;;3.50;;
82030;SDS011;71592;52.178;4.512;2023-11-21T08:17:38;5.97;;;2.97;;
82030;SDS011;71592;52.178;4.512;2023-11-21T08:20:04;6.40;;;3.25;;
82030;SDS011;71592;52.178;4.512;2023-11-21T08:22:29;5.97;;;2.55;;
82030;SDS011;71592;52.178;4.512;2023-11-21T08:24:55;5.65;;;2.58;;
82030;SDS011;71592;52.178;4.512;2023-11-21T08:27:21;4.43;;;2.70;;
82030;SDS011;71592;52.178;4.512;2023-11-21T08:29:46;5.50;;;2.57;;
82030;SDS011;71592;52.178;4.512;2023-11-21T08:32:12;4.33;;;2.37;;
82030;SDS011;71592;52.178;4.512;2023-11-21T08:34:37;4.83;;;2.60;;
82030;SDS011;71592;52.178;4.512;2023-11-21T08:37:04;4.63;;;3.17;;
82030;SDS011;71592;52.178;4.512;2023-11-21T08:39:30;3.72;;;1.98;;
82030;SDS011;71592;52.178;4.512;2023-11-21T08:41:56;5.13;;;2.70;;
82030;SDS011;71592;52.178;4.512;2023-11-21T08:44:22;6.68;;;2.75;;
82030;SDS011;71592;52.178;4.512;2023-11-21T08:46:48;3.40;;;2.22;;
82030;SDS011;71592;52.178;4.512;2023-11-21T08:49:14;6.82;;;3.30;;
82030;SDS011;71592;52.178;4.512;2023-11-21T08:51:40;5.32;;;2.80;;
82030;SDS011;71592;52.178;4.512;2023-11-21T08:54:05;5.63;;;3.97;;
82030;SDS011;71592;52.178;4.512;2023-11-21T08:56:33;5.72;;;3.17;;
82030;SDS011;71592;52.178;4.512;2023-11-21T08:58:58;5.85;;;3.00;;
82030;SDS011;71592;52.178;4.512;2023-11-21T09:01:25;7.28;;;3.17;;
82030;SDS011;71592;52.178;4.512;2023-11-21T09:03:51;6.18;;;3.72;;
82030;SDS011;71592;52.178;4.512;2023-11-21T09:06:16;7.50;;;3.85;;
82030;SDS011;71592;52.178;4.512;2023-11-21T09:08:42;6.88;;;3.30;;
82030;SDS011;71592;52.178;4.512;2023-11-21T09:11:08;5.70;;;3.10;;
82030;SDS011;71592;52.178;4.512;2023-11-21T09:13:33;6.97;;;3.60;;
82030;SDS011;71592;52.178;4.512;2023-11-21T09:15:59;5.68;;;3.55;;
82030;SDS011;71592;52.178;4.512;2023-11-21T09:18:24;7.28;;;3.80;;
82030;SDS011;71592;52.178;4.512;2023-11-21T09:20:50;7.73;;;3.90;;
82030;SDS011;71592;52.178;4.512;2023-11-21T09:23:15;5.90;;;3.40;;
82030;SDS011;71592;52.178;4.512;2023-11-21T09:25:40;6.43;;;3.70;;
82030;SDS011;71592;52.178;4.512;2023-11-21T09:28:06;8.38;;;3.70;;
82030;SDS011;71592;52.178;4.512;2023-11-21T09:30:33;5.72;;;3.17;;
82030;SDS011;71592;52.178;4.512;2023-11-21T09:32:59;8.02;;;3.80;;
82030;SDS011;71592;52.178;4.512;2023-11-21T09:35:27;7.70;;;4.15;;
82030;SDS011;71592;52.178;4.512;2023-11-21T09:37:53;7.78;;;3.85;;
82030;SDS011;71592;52.178;4.512;2023-11-21T09:40:20;7.97;;;3.78;;
82030;SDS011;71592;52.178;4.512;2023-11-21T09:45:17;6.00;;;4.15;;
82030;SDS011;71592;52.178;4.512;2023-11-21T09:47:45;9.02;;;3.90;;
82030;SDS011;71592;52.178;4.512;2023-11-21T09:50:10;7.97;;;4.20;;
82030;SDS011;71592;52.178;4.512;2023-11-21T09:52:49;6.53;;;3.55;;
82030;SDS011;71592;52.178;4.512;2023-11-21T09:55:15;5.63;;;3.50;;
82030;SDS011;71592;52.178;4.512;2023-11-21T09:57:43;6.03;;;3.78;;
82030;SDS011;71592;52.178;4.512;2023-11-21T10:00:10;6.18;;;3.58;;
82030;SDS011;71592;52.178;4.512;2023-11-21T10:02:36;5.82;;;3.20;;
82030;SDS011;71592;52.178;4.512;2023-11-21T10:05:03;5.82;;;3.22;;
82030;SDS011;71592;52.178;4.512;2023-11-21T10:07:28;5.45;;;3.50;;
82030;SDS011;71592;52.178;4.512;2023-11-21T10:09:56;4.93;;;3.13;;
82030;SDS011;71592;52.178;4.512;2023-11-21T10:12:25;5.40;;;3.38;;
82030;SDS011;71592;52.178;4.512;2023-11-21T10:14:51;5.60;;;3.20;;
82030;SDS011;71592;52.178;4.512;2023-11-21T10:17:18;5.43;;;3.15;;
82030;SDS011;71592;52.178;4.512;2023-11-21T10:19:46;5.55;;;3.05;;
82030;SDS011;71592;52.178;4.512;2023-11-21T10:22:12;6.40;;;3.20;;
82030;SDS011;71592;52.178;4.512;2023-11-21T10:24:37;4.35;;;2.70;;
82030;SDS011;71592;52.178;4.512;2023-11-21T10:27:03;5.75;;;3.53;;
82030;SDS011;71592;52.178;4.512;2023-11-21T10:29:29;4.47;;;2.58;;
82030;SDS011;71592;52.178;4.512;2023-11-21T10:31:55;4.65;;;2.70;;
82030;SDS011;71592;52.178;4.512;2023-11-21T10:34:22;5.40;;;2.90;;
82030;SDS011;71592;52.178;4.512;2023-11-21T10:36:48;7.37;;;3.37;;
82030;SDS011;71592;52.178;4.512;2023-11-21T10:39:16;7.30;;;2.97;;
82030;SDS011;71592;52.178;4.512;2023-11-21T10:41:45;6.38;;;3.38;;
82030;SDS011;71592;52.178;4.512;2023-11-21T10:44:13;6.45;;;3.70;;
82030;SDS011;71592;52.178;4.512;2023-11-21T10:46:39;7.72;;;4.28;;
82030;SDS011;71592;52.178;4.512;2023-11-21T10:49:05;5.82;;;3.60;;
82030;SDS011;71592;52.178;4.512;2023-11-21T10:51:31;8.13;;;4.60;;
82030;SDS011;71592;52.178;4.512;2023-11-21T10:53:56;8.67;;;4.63;;
82030;SDS011;71592;52.178;4.512;2023-11-21T10:56:23;8.23;;;4.60;;
82030;SDS011;71592;52.178;4.512;2023-11-21T10:58:49;8.45;;;4.47;;
82030;SDS011;71592;52.178;4.512;2023-11-21T11:01:16;7.28;;;4.10;;
82030;SDS011;71592;52.178;4.512;2023-11-21T11:03:42;6.95;;;3.83;;
82030;SDS011;71592;52.178;4.512;2023-11-21T11:06:09;7.63;;;4.20;;
82030;SDS011;71592;52.178;4.512;2023-11-21T11:08:37;8.38;;;4.18;;
82030;SDS011;71592;52.178;4.512;2023-11-21T11:11:02;7.05;;;4.30;;
82030;SDS011;71592;52.178;4.512;2023-11-21T11:13:28;8.50;;;5.10;;
82030;SDS011;71592;52.178;4.512;2023-11-21T11:15:57;9.05;;;4.75;;
82030;SDS011;71592;52.178;4.512;2023-11-21T11:18:24;8.05;;;4.00;;
82030;SDS011;71592;52.178;4.512;2023-11-21T11:20:50;9.68;;;4.88;;
82030;SDS011;71592;52.178;4.512;2023-11-21T11:38:14;8.23;;;4.65;;
82030;SDS011;71592;52.178;4.512;2023-11-21T11:40:40;9.00;;;5.10;;
82030;SDS011;71592;52.178;4.512;2023-11-21T11:43:06;7.07;;;4.13;;
82030;SDS011;71592;52.178;4.512;2023-11-21T11:45:35;7.95;;;4.82;;
82030;SDS011;71592;52.178;4.512;2023-11-21T11:48:01;8.63;;;4.75;;
82030;SDS011;71592;52.178;4.512;2023-11-21T11:50:27;8.63;;;4.35;;
82030;SDS011;71592;52.178;4.512;2023-11-21T11:52:52;9.23;;;4.63;;
82030;SDS011;71592;52.178;4.512;2023-11-21T11:55:23;8.23;;;4.25;;
82030;SDS011;71592;52.178;4.512;2023-11-21T11:57:53;7.50;;;4.85;;
82030;SDS011;71592;52.178;4.512;2023-11-21T12:02:55;8.38;;;4.38;;
82030;SDS011;71592;52.178;4.512;2023-11-21T12:05:27;8.40;;;4.38;;
82030;SDS011;71592;52.178;4.512;2023-11-21T12:08:11;7.28;;;4.05;;
82030;SDS011;71592;52.178;4.512;2023-11-21T12:10:37;7.32;;;4.32;;
82030;SDS011;71592;52.178;4.512;2023-11-21T12:13:07;7.22;;;4.53;;
82030;SDS011;71592;52.178;4.512;2023-11-21T12:15:33;7.50;;;4.05;;
82030;SDS011;71592;52.178;4.512;2023-11-21T12:17:58;7.05;;;3.95;;
82030;SDS011;71592;52.178;4.512;2023-11-21T12:20:24;7.15;;;4.32;;
82030;SDS011;71592;52.178;4.512;2023-11-21T12:22:50;8.55;;;4.15;;
82030;SDS011;71592;52.178;4.512;2023-11-21T12:25:17;6.60;;;4.20;;
82030;SDS011;71592;52.178;4.512;2023-11-21T12:27:53;9.75;;;4.47;;
82030;SDS011;71592;52.178;4.512;2023-11-21T12:30:20;7.57;;;3.95;;
82030;SDS011;71592;52.178;4.512;2023-11-21T12:32:50;5.57;;;3.75;;
82030;SDS011;71592;52.178;4.512;2023-11-21T12:35:20;6.45;;;4.38;;
82030;SDS011;71592;52.178;4.512;2023-11-21T12:37:46;8.60;;;4.53;;
82030;SDS011;71592;52.178;4.512;2023-11-21T12:40:12;6.75;;;4.30;;
82030;SDS011;71592;52.178;4.512;2023-11-21T12:42:40;6.75;;;4.13;;
82030;SDS011;71592;52.178;4.512;2023-11-21T12:47:41;6.05;;;4.25;;
82030;SDS011;71592;52.178;4.512;2023-11-21T12:50:07;8.43;;;4.82;;
82030;SDS011;71592;52.178;4.512;2023-11-21T12:52:39;7.25;;;4.20;;
82030;SDS011;71592;52.178;4.512;2023-11-21T12:55:04;6.43;;;4.05;;
82030;SDS011;71592;52.178;4.512;2023-11-21T12:57:30;8.77;;;4.80;;
82030;SDS011;71592;52.178;4.512;2023-11-21T12:59:58;8.50;;;4.87;;
82030;SDS011;71592;52.178;4.512;2023-11-21T13:02:30;7.18;;;4.65;;
82030;SDS011;71592;52.178;4.512;2023-11-21T13:04:56;6.22;;;4.00;;
82030;SDS011;71592;52.178;4.512;2023-11-21T13:07:23;7.22;;;4.80;;
82030;SDS011;71592;52.178;4.512;2023-11-21T13:09:52;8.30;;;4.70;;
82030;SDS011;71592;52.178;4.512;2023-11-21T13:12:17;8.07;;;4.10;;
82030;SDS011;71592;52.178;4.512;2023-11-21T13:14:49;8.27;;;4.20;;
82030;SDS011;71592;52.178;4.512;2023-11-21T13:17:15;6.60;;;4.00;;
82030;SDS011;71592;52.178;4.512;2023-11-21T13:19:40;7.77;;;3.90;;
82030;SDS011;71592;52.178;4.512;2023-11-21T13:22:07;7.05;;;3.88;;
82030;SDS011;71592;52.178;4.512;2023-11-21T13:24:42;6.72;;;4.25;;
82030;SDS011;71592;52.178;4.512;2023-11-21T13:29:32;5.80;;;3.77;;
82030;SDS011;71592;52.178;4.512;2023-11-21T13:32:00;7.90;;;4.68;;
82030;SDS011;71592;52.178;4.512;2023-11-21T13:34:28;7.65;;;4.22;;
82030;SDS011;71592;52.178;4.512;2023-11-21T13:36:53;7.60;;;4.50;;
82030;SDS011;71592;52.178;4.512;2023-11-21T13:39:23;7.97;;;4.70;;
82030;SDS011;71592;52.178;4.512;2023-11-21T13:41:49;7.90;;;5.10;;
82030;SDS011;71592;52.178;4.512;2023-11-21T13:44:15;8.32;;;4.90;;
82030;SDS011;71592;52.178;4.512;2023-11-21T13:46:45;6.75;;;4.93;;
82030;SDS011;71592;52.178;4.512;2023-11-21T13:49:10;9.30;;;6.40;;
82030;SDS011;71592;52.178;4.512;2023-11-21T13:51:36;8.77;;;5.03;;
82030;SDS011;71592;52.178;4.512;2023-11-21T13:54:09;8.20;;;4.43;;
82030;SDS011;71592;52.178;4.512;2023-11-21T13:56:35;9.25;;;5.65;;
82030;SDS011;71592;52.178;4.512;2023-11-21T13:59:00;7.95;;;5.15;;
82030;SDS011;71592;52.178;4.512;2023-11-21T14:01:34;9.90;;;5.60;;
82030;SDS011;71592;52.178;4.512;2023-11-21T14:04:17;10.38;;;5.30;;
82030;SDS011;71592;52.178;4.512;2023-11-21T14:06:43;11.03;;;6.47;;
82030;SDS011;71592;52.178;4.512;2023-11-21T14:09:17;10.00;;;5.88;;
82030;SDS011;71592;52.178;4.512;2023-11-21T14:11:53;12.35;;;6.57;;
82030;SDS011;71592;52.178;4.512;2023-11-21T14:14:21;11.43;;;6.70;;
82030;SDS011;71592;52.178;4.512;2023-11-21T14:16:46;9.85;;;6.72;;
82030;SDS011;71592;52.178;4.512;2023-11-21T14:19:12;10.75;;;6.30;;
82030;SDS011;71592;52.178;4.512;2023-11-21T14:21:46;11.20;;;6.50;;
82030;SDS011;71592;52.178;4.512;2023-11-21T14:24:12;11.45;;;6.85;;
82030;SDS011;71592;52.178;4.512;2023-11-21T14:26:39;10.57;;;6.20;;
82030;SDS011;71592;52.178;4.512;2023-11-21T14:29:04;11.93;;;6.63;;
82030;SDS011;71592;52.178;4.512;2023-11-21T14:31:32;12.30;;;6.68;;
82030;SDS011;71592;52.178;4.512;2023-11-21T14:33:57;10.45;;;6.25;;
82030;SDS011;71592;52.178;4.512;2023-11-21T14:36:22;9.80;;;5.87;;
82030;SDS011;71592;52.178;4.512;2023-11-21T14:38:49;9.10;;;6.13;;
82030;SDS011;71592;52.178;4.512;2023-11-21T14:41:14;8.30;;;4.90;;
82030;SDS011;71592;52.178;4.512;2023-11-21T14:43:39;10.83;;;5.90;;
82030;SDS011;71592;52.178;4.512;2023-11-21T14:46:05;8.68;;;5.35;;
82030;SDS011;71592;52.178;4.512;2023-11-21T14:48:35;9.30;;;5.75;;
82030;SDS011;71592;52.178;4.512;2023-11-21T14:51:13;11.23;;;6.03;;
82030;SDS011;71592;52.178;4.512;2023-11-21T14:53:38;11.93;;;5.82;;
82030;SDS011;71592;52.178;4.512;2023-11-21T14:56:21;9.45;;;5.25;;
82030;SDS011;71592;52.178;4.512;2023-11-21T14:58:56;11.43;;;5.75;;
82030;SDS011;71592;52.178;4.512;2023-11-21T15:01:22;8.00;;;5.00;;
82030;SDS011;71592;52.178;4.512;2023-11-21T15:04:06;8.18;;;4.70;;
82030;SDS011;71592;52.178;4.512;2023-11-21T15:06:31;8.45;;;5.05;;
82030;SDS011;71592;52.178;4.512;2023-11-21T15:08:57;8.93;;;5.30;;
82030;SDS011;71592;52.178;4.512;2023-11-21T15:11:32;9.00;;;5.50;;
82030;SDS011;71592;52.178;4.512;2023-11-21T15:13:57;9.73;;;5.00;;
82030;SDS011;71592;52.178;4.512;2023-11-21T15:16:23;9.13;;;5.43;;
82030;SDS011;71592;52.178;4.512;2023-11-21T15:18:48;8.93;;;5.05;;
82030;SDS011;71592;52.178;4.512;2023-11-21T15:21:14;9.52;;;4.88;;
82030;SDS011;71592;52.178;4.512;2023-11-21T15:23:40;7.82;;;4.97;;
82030;SDS011;71592;52.178;4.512;2023-11-21T15:26:09;7.22;;;4.63;;
82030;SDS011;71592;52.178;4.512;2023-11-21T15:28:35;9.27;;;4.78;;